Danubia — A8HZ9 — position and weather

sailwx.info

Track history (hours):
 
Tides and Currents Weather Stations Pressure Air Temp Water Temp Dewpoint Dewpoint Depression Visibility Wind Speed Wind Dir Waves Ship Positions

Danubia

Last reported at 2017-Nov-29 08:44 UTC. Time now 2017-Dec-12 18:10 UTC.
Position N 32°14' W 117°53'.
Warning: this ship's position is 13 days out of date.

Length 229 m; draft 7.5 m.

Type: Tanker. MMSI: 636090950.

Date/timePositionNaut miles runAvg speedWind from/ knotsBaromVisibWave heightAir tempDewpointWater temp
2017-Nov-29 08:44N 32°14' W 117°53'510.5
2017-Nov-29 08:14N 32°19' W 117°53'310.5
2017-Nov-29 07:55N 32°23' W 117°53'410.6
2017-Nov-29 07:31N 32°27' W 117°53'612.0
2017-Nov-29 07:00N 32°33' W 117°53'612.5
2017-Nov-29 06:30N 32°39' W 117°55'612.6
2017-Nov-29 06:00N 32°45' W 117°57'611.7
2017-Nov-29 05:30N 32°51' W 117°58'611.8
2017-Nov-29 05:00N 32°57' W 118°00'711.9
2017-Nov-29 04:28N 33°03' W 118°02'612.1
2017-Nov-29 04:00N 33°09' W 118°03'712.0
2017-Nov-29 03:26N 33°15' W 118°05'611.9
2017-Nov-29 02:57N 33°21' W 118°07'512.1
2017-Nov-29 02:30N 33°26' W 118°09'611.9
2017-Nov-29 02:00N 33°31' W 118°12'611.6
2017-Nov-29 01:31N 33°37' W 118°13'5 9.5
2017-Nov-29 01:00N 33°42' W 118°12'1 1.0
2017-Nov-29 00:28N 33°42' W 118°12'0 0.0
2017-Nov-28 23:58N 33°42' W 118°12'0 0.0
2017-Nov-28 23:28N 33°42' W 118°12'0 0.0
2017-Nov-28 22:59N 33°42' W 118°12'0 0.0
2017-Nov-28 22:28N 33°42' W 118°12'0 0.0
2017-Nov-28 21:58N 33°42' W 118°12'0 0.0
2017-Nov-28 21:29N 33°42' W 118°12'0 0.0
2017-Nov-28 20:52N 33°42' W 118°12'0 0.0
2017-Nov-28 20:28N 33°42' W 118°12'0 0.0
2017-Nov-28 19:41N 33°42' W 118°12'0 0.0
2017-Nov-28 19:29N 33°42' W 118°12'0 0.0
2017-Nov-28 18:58N 33°42' W 118°12'0 0.0
2017-Nov-28 18:28N 33°42' W 118°12'0 0.1
2017-Nov-28 17:58N 33°42' W 118°12'0 0.1
2017-Nov-28 17:29N 33°42' W 118°12'0 0.1
2017-Nov-28 16:58N 33°42' W 118°12'0 0.1
2017-Nov-28 16:28N 33°42' W 118°12'0 0.2
2017-Nov-28 15:58N 33°42' W 118°12'0 0.1
2017-Nov-28 14:58N 33°42' W 118°12'1 2.2
2017-Nov-28 14:23N 33°42' W 118°14'2 5.1
2017-Nov-28 14:00N 33°43' W 118°16'2 4.6
2017-Nov-28 13:30N 33°45' W 118°16'  
2017-Nov-24 23:09N 33°46' W 118°16'0 0.0
2017-Nov-24 22:57N 33°46' W 118°16'0 0.2
2017-Nov-24 22:30N 33°46' W 118°16'1 1.6
2017-Nov-24 22:00N 33°45' W 118°16'2 3.3
2017-Nov-24 21:30N 33°43' W 118°16'3 5.3
2017-Nov-24 21:00N 33°44' W 118°13'1 0.1
2017-Nov-24 07:53N 33°45' W 118°13'0 0.0
2017-Nov-24 07:29N 33°45' W 118°13'1 1.2
2017-Nov-24 07:00N 33°44' W 118°12'1 2.1
2017-Nov-24 06:30N 33°44' W 118°13'0 0.0
2017-Nov-23 07:37N 33°43' W 118°13'0 0.3
2017-Nov-23 07:19N 33°43' W 118°13'0 0.1
2017-Nov-23 06:55N 33°44' W 118°13'  
2017-Nov-20 00:26N 31°13' W 117°53'1811.2
2017-Nov-19 22:51N 30°57' W 117°44'411.5
2017-Nov-19 22:30N 30°53' W 117°42'611.4
2017-Nov-19 21:59N 30°47' W 117°40'611.3
2017-Nov-19 21:25N 30°42' W 117°37'711.5
2017-Nov-19 20:51N 30°36' W 117°33'611.6
2017-Nov-19 20:21N 30°30' W 117°31'411.5
2017-Nov-19 20:00N 30°27' W 117°29'612.0
2017-Nov-19 19:28N 30°21' W 117°26'612.3
2017-Nov-19 19:00N 30°16' W 117°23'713.0
2017-Nov-19 18:29N 30°09' W 117°20'1512.7
2017-Nov-19 17:17N 29°55' W 117°13'2412.7
2017-Nov-19 15:22N 29°33' W 117°02'812.4
2017-Nov-19 14:41N 29°26' W 116°58'1612.6
2017-Nov-19 13:24N 29°11' W 116°50'512.5
2017-Nov-19 13:00N 29°06' W 116°48'1212.6
2017-Nov-19 12:04N 28°55' W 116°42'312.9
2017-Nov-19 11:52N 28°53' W 116°41'1012.8
2017-Nov-19 11:04N 28°44' W 116°36'  
Track history (hours):
 
Tides and Currents Weather Stations Pressure Air Temp Water Temp Dewpoint Dewpoint Depression Visibility Wind Speed Wind Dir Waves Ship Positions

Danubia

Last reported at 2017-Nov-29 08:44 UTC. Time now 2017-Dec-12 18:10 UTC.
Position N 32°14' W 117°53'.
Warning: this ship's position is 13 days out of date.

Length 229 m; draft 7.5 m.

Type: Tanker. MMSI: 636090950.

Date/timePositionNaut miles runAvg speedWind from/ knotsBaromVisibWave heightAir tempDewpointWater temp
2017-Nov-29 08:44N 32°14' W 117°53'510.5
2017-Nov-29 08:14N 32°19' W 117°53'310.5
2017-Nov-29 07:55N 32°23' W 117°53'410.6
2017-Nov-29 07:31N 32°27' W 117°53'612.0
2017-Nov-29 07:00N 32°33' W 117°53'612.5
2017-Nov-29 06:30N 32°39' W 117°55'612.6
2017-Nov-29 06:00N 32°45' W 117°57'611.7
2017-Nov-29 05:30N 32°51' W 117°58'611.8
2017-Nov-29 05:00N 32°57' W 118°00'711.9
2017-Nov-29 04:28N 33°03' W 118°02'612.1
2017-Nov-29 04:00N 33°09' W 118°03'712.0
2017-Nov-29 03:26N 33°15' W 118°05'611.9
2017-Nov-29 02:57N 33°21' W 118°07'512.1
2017-Nov-29 02:30N 33°26' W 118°09'611.9
2017-Nov-29 02:00N 33°31' W 118°12'611.6
2017-Nov-29 01:31N 33°37' W 118°13'5 9.5
2017-Nov-29 01:00N 33°42' W 118°12'1 1.0
2017-Nov-29 00:28N 33°42' W 118°12'0 0.0
2017-Nov-28 23:58N 33°42' W 118°12'0 0.0
2017-Nov-28 23:28N 33°42' W 118°12'0 0.0
2017-Nov-28 22:59N 33°42' W 118°12'0 0.0
2017-Nov-28 22:28N 33°42' W 118°12'0 0.0
2017-Nov-28 21:58N 33°42' W 118°12'0 0.0
2017-Nov-28 21:29N 33°42' W 118°12'0 0.0
2017-Nov-28 20:52N 33°42' W 118°12'0 0.0
2017-Nov-28 20:28N 33°42' W 118°12'0 0.0
2017-Nov-28 19:41N 33°42' W 118°12'0 0.0
2017-Nov-28 19:29N 33°42' W 118°12'0 0.0
2017-Nov-28 18:58N 33°42' W 118°12'0 0.0
2017-Nov-28 18:28N 33°42' W 118°12'0 0.1
2017-Nov-28 17:58N 33°42' W 118°12'0 0.1
2017-Nov-28 17:29N 33°42' W 118°12'0 0.1
2017-Nov-28 16:58N 33°42' W 118°12'0 0.1
2017-Nov-28 16:28N 33°42' W 118°12'0 0.2
2017-Nov-28 15:58N 33°42' W 118°12'0 0.1
2017-Nov-28 14:58N 33°42' W 118°12'1 2.2
2017-Nov-28 14:23N 33°42' W 118°14'2 5.1
2017-Nov-28 14:00N 33°43' W 118°16'2 4.6
2017-Nov-28 13:30N 33°45' W 118°16'  
2017-Nov-24 23:09N 33°46' W 118°16'0 0.0
2017-Nov-24 22:57N 33°46' W 118°16'0 0.2
2017-Nov-24 22:30N 33°46' W 118°16'1 1.6
2017-Nov-24 22:00N 33°45' W 118°16'2 3.3
2017-Nov-24 21:30N 33°43' W 118°16'3 5.3
2017-Nov-24 21:00N 33°44' W 118°13'1 0.1
2017-Nov-24 07:53N 33°45' W 118°13'0 0.0
2017-Nov-24 07:29N 33°45' W 118°13'1 1.2
2017-Nov-24 07:00N 33°44' W 118°12'1 2.1
2017-Nov-24 06:30N 33°44' W 118°13'0 0.0
2017-Nov-23 07:37N 33°43' W 118°13'0 0.3
2017-Nov-23 07:19N 33°43' W 118°13'0 0.1
2017-Nov-23 06:55N 33°44' W 118°13'  
2017-Nov-20 00:26N 31°13' W 117°53'1811.2
2017-Nov-19 22:51N 30°57' W 117°44'411.5
2017-Nov-19 22:30N 30°53' W 117°42'611.4
2017-Nov-19 21:59N 30°47' W 117°40'611.3
2017-Nov-19 21:25N 30°42' W 117°37'711.5
2017-Nov-19 20:51N 30°36' W 117°33'611.6
2017-Nov-19 20:21N 30°30' W 117°31'411.5
2017-Nov-19 20:00N 30°27' W 117°29'612.0
2017-Nov-19 19:28N 30°21' W 117°26'612.3
2017-Nov-19 19:00N 30°16' W 117°23'713.0
2017-Nov-19 18:29N 30°09' W 117°20'1512.7
2017-Nov-19 17:17N 29°55' W 117°13'2412.7
2017-Nov-19 15:22N 29°33' W 117°02'812.4
2017-Nov-19 14:41N 29°26' W 116°58'1612.6
2017-Nov-19 13:24N 29°11' W 116°50'512.5
2017-Nov-19 13:00N 29°06' W 116°48'1212.6
2017-Nov-19 12:04N 28°55' W 116°42'312.9
2017-Nov-19 11:52N 28°53' W 116°41'1012.8
2017-Nov-19 11:04N 28°44' W 116°36'  

Dump ship's entire track history